sensor_id;sensor_type;location;lat;lon;timestamp;pressure;altitude;pressure_sealevel;temperature
51693;BMP280;37777;53.066;21.638;2024-02-23T00:28:52;98544.13;;;7.44
51693;BMP280;37777;53.066;21.638;2024-02-23T00:35:53;98515.31;;;7.44
51693;BMP280;37777;53.066;21.638;2024-02-23T00:43:23;98520.34;;;7.46
51693;BMP280;37777;53.066;21.638;2024-02-23T00:50:25;98523.44;;;7.48
51693;BMP280;37777;53.066;21.638;2024-02-23T01:23:02;98507.22;;;7.41
51693;BMP280;37777;53.066;21.638;2024-02-23T01:30:04;98502.56;;;7.37
51693;BMP280;37777;53.066;21.638;2024-02-23T01:37:06;98492.88;;;7.33
51693;BMP280;37777;53.066;21.638;2024-02-23T01:44:08;98485.94;;;7.28
51693;BMP280;37777;53.066;21.638;2024-02-23T01:51:09;98484.78;;;7.29
51693;BMP280;37777;53.066;21.638;2024-02-23T01:58:11;98489.75;;;7.27
51693;BMP280;37777;53.066;21.638;2024-02-23T02:22:22;98471.00;;;7.34
51693;BMP280;37777;53.066;21.638;2024-02-23T02:29:24;98458.81;;;7.41
51693;BMP280;37777;53.066;21.638;2024-02-23T02:36:25;98448.47;;;7.43
51693;BMP280;37777;53.066;21.638;2024-02-23T02:43:27;98450.78;;;7.48
51693;BMP280;37777;53.066;21.638;2024-02-23T02:58:57;98441.28;;;7.54
51693;BMP280;37777;53.066;21.638;2024-02-23T03:05:58;98451.28;;;7.57
51693;BMP280;37777;53.066;21.638;2024-02-23T03:21:21;98449.00;;;7.59
51693;BMP280;37777;53.066;21.638;2024-02-23T03:28:22;98437.06;;;7.56
51693;BMP280;37777;53.066;21.638;2024-02-23T03:43:46;98444.44;;;7.63
51693;BMP280;37777;53.066;21.638;2024-02-23T03:50:48;98437.16;;;7.67
51693;BMP280;37777;53.066;21.638;2024-02-23T04:06:11;98447.25;;;7.74
51693;BMP280;37777;53.066;21.638;2024-02-23T04:13:12;98456.88;;;7.75
51693;BMP280;37777;53.066;21.638;2024-02-23T04:28:41;98483.84;;;7.82
51693;BMP280;37777;53.066;21.638;2024-02-23T04:44:35;98489.09;;;7.68
51693;BMP280;37777;53.066;21.638;2024-02-23T04:51:37;98507.47;;;7.62
51693;BMP280;37777;53.066;21.638;2024-02-23T04:58:38;98507.44;;;7.59
51693;BMP280;37777;53.066;21.638;2024-02-23T05:05:42;98504.66;;;7.51
51693;BMP280;37777;53.066;21.638;2024-02-23T05:12:44;98511.13;;;7.47
51693;BMP280;37777;53.066;21.638;2024-02-23T05:19:45;98508.03;;;7.45
51693;BMP280;37777;53.066;21.638;2024-02-23T05:26:48;98510.34;;;7.43
51693;BMP280;37777;53.066;21.638;2024-02-23T05:33:49;98515.72;;;7.43
51693;BMP280;37777;53.066;21.638;2024-02-23T05:40:51;98530.31;;;7.42
51693;BMP280;37777;53.066;21.638;2024-02-23T05:47:52;98539.94;;;7.43
51693;BMP280;37777;53.066;21.638;2024-02-23T05:54:55;98544.13;;;7.44
51693;BMP280;37777;53.066;21.638;2024-02-23T06:01:57;98550.28;;;7.41
51693;BMP280;37777;53.066;21.638;2024-02-23T06:08:59;98562.59;;;7.42
51693;BMP280;37777;53.066;21.638;2024-02-23T06:16:01;98566.44;;;7.44
51693;BMP280;37777;53.066;21.638;2024-02-23T06:23:03;98571.09;;;7.47
51693;BMP280;37777;53.066;21.638;2024-02-23T06:30:05;98587.66;;;7.49
51693;BMP280;37777;53.066;21.638;2024-02-23T06:37:07;98588.44;;;7.50
51693;BMP280;37777;53.066;21.638;2024-02-23T06:44:08;98601.59;;;7.55
51693;BMP280;37777;53.066;21.638;2024-02-23T06:51:10;98601.97;;;7.57
51693;BMP280;37777;53.066;21.638;2024-02-23T06:58:11;98610.91;;;7.61
51693;BMP280;37777;53.066;21.638;2024-02-23T07:05:14;98619.38;;;7.63
51693;BMP280;37777;53.066;21.638;2024-02-23T07:12:16;98626.72;;;7.66
51693;BMP280;37777;53.066;21.638;2024-02-23T07:19:18;98640.56;;;7.68
51693;BMP280;37777;53.066;21.638;2024-02-23T07:26:21;98648.66;;;7.68
51693;BMP280;37777;53.066;21.638;2024-02-23T07:33:23;98661.81;;;7.73
51693;BMP280;37777;53.066;21.638;2024-02-23T07:40:25;98665.34;;;7.78
51693;BMP280;37777;53.066;21.638;2024-02-23T07:47:26;98665.34;;;7.78
51693;BMP280;37777;53.066;21.638;2024-02-23T07:54:29;98677.69;;;7.82
51693;BMP280;37777;53.066;21.638;2024-02-23T08:01:30;98684.63;;;7.83
51693;BMP280;37777;53.066;21.638;2024-02-23T08:08:32;98700.06;;;7.86
51693;BMP280;37777;53.066;21.638;2024-02-23T08:15:36;98704.72;;;7.89
51693;BMP280;37777;53.066;21.638;2024-02-23T08:22:38;98708.59;;;7.92
51693;BMP280;37777;53.066;21.638;2024-02-23T08:29:39;98720.19;;;7.96
51693;BMP280;37777;53.066;21.638;2024-02-23T08:36:43;98729.47;;;7.99
51693;BMP280;37777;53.066;21.638;2024-02-23T08:43:45;98746.75;;;7.98
51693;BMP280;37777;53.066;21.638;2024-02-23T08:50:47;98750.25;;;8.02
51693;BMP280;37777;53.066;21.638;2024-02-23T08:57:49;98755.66;;;8.02
51693;BMP280;37777;53.066;21.638;2024-02-23T09:04:51;98764.16;;;8.04
51693;BMP280;37777;53.066;21.638;2024-02-23T09:11:53;98781.91;;;8.08
51693;BMP280;37777;53.066;21.638;2024-02-23T09:18:55;98784.28;;;8.14
51693;BMP280;37777;53.066;21.638;2024-02-23T09:25:56;98808.97;;;8.16
51693;BMP280;37777;53.066;21.638;2024-02-23T09:32:58;98805.59;;;8.22
51693;BMP280;37777;53.066;21.638;2024-02-23T09:39:59;98821.78;;;8.26
51693;BMP280;37777;53.066;21.638;2024-02-23T09:47:05;98832.31;;;8.35
51693;BMP280;37777;53.066;21.638;2024-02-23T09:54:11;98828.50;;;8.39
51693;BMP280;37777;53.066;21.638;2024-02-23T10:01:16;98844.16;;;8.57
51693;BMP280;37777;53.066;21.638;2024-02-23T10:25:06;98856.03;;;8.82
51693;BMP280;37777;53.066;21.638;2024-02-23T10:32:12;98869.56;;;8.86
51693;BMP280;37777;53.066;21.638;2024-02-23T10:39:17;98875.34;;;8.88
51693;BMP280;37777;53.066;21.638;2024-02-23T10:46:22;98883.53;;;8.95
51693;BMP280;37777;53.066;21.638;2024-02-23T10:53:24;98887.94;;;9.07
51693;BMP280;37777;53.066;21.638;2024-02-23T11:00:25;98892.25;;;9.15
51693;BMP280;37777;53.066;21.638;2024-02-23T11:32:41;98932.31;;;9.47
51693;BMP280;37777;53.066;21.638;2024-02-23T11:48:05;98938.19;;;9.57
51693;BMP280;37777;53.066;21.638;2024-02-23T12:20:25;99000.16;;;9.80
51693;BMP280;37777;53.066;21.638;2024-02-23T12:35:49;99020.59;;;9.81
51693;BMP280;37777;53.066;21.638;2024-02-23T12:42:50;99028.31;;;9.79
51693;BMP280;37777;53.066;21.638;2024-02-23T12:58:20;99054.56;;;9.82
51693;BMP280;37777;53.066;21.638;2024-02-23T13:05:21;99065.00;;;9.83
51693;BMP280;37777;53.066;21.638;2024-02-23T13:12:23;99074.38;;;9.89
51693;BMP280;37777;53.066;21.638;2024-02-23T13:19:25;99080.94;;;9.92
51693;BMP280;37777;53.066;21.638;2024-02-23T13:26:27;99089.81;;;9.93
51693;BMP280;37777;53.066;21.638;2024-02-23T13:33:29;99095.63;;;9.95
51693;BMP280;37777;53.066;21.638;2024-02-23T13:40:31;99100.31;;;9.98
51693;BMP280;37777;53.066;21.638;2024-02-23T13:47:34;99101.53;;;10.04
51693;BMP280;37777;53.066;21.638;2024-02-23T13:54:36;99101.47;;;10.00
51693;BMP280;37777;53.066;21.638;2024-02-23T14:01:38;99117.25;;;9.95
51693;BMP280;37777;53.066;21.638;2024-02-23T14:34:05;99149.50;;;9.84
51693;BMP280;37777;53.066;21.638;2024-02-23T14:41:06;99152.56;;;9.79
51693;BMP280;37777;53.066;21.638;2024-02-23T14:56:33;99165.13;;;9.67
51693;BMP280;37777;53.066;21.638;2024-02-23T15:03:35;99184.72;;;9.61
51693;BMP280;37777;53.066;21.638;2024-02-23T15:10:37;99195.81;;;9.56
51693;BMP280;37777;53.066;21.638;2024-02-23T15:17:38;99219.34;;;9.55
51693;BMP280;37777;53.066;21.638;2024-02-23T15:24:44;99223.13;;;9.50
51693;BMP280;37777;53.066;21.638;2024-02-23T15:31:50;99238.09;;;9.44
51693;BMP280;37777;53.066;21.638;2024-02-23T15:38:53;99240.66;;;9.37
51693;BMP280;37777;53.066;21.638;2024-02-23T15:46:04;99222.09;;;9.32
51693;BMP280;37777;53.066;21.638;2024-02-23T15:53:05;99236.22;;;9.25
51693;BMP280;37777;53.066;21.638;2024-02-23T16:00:08;99242.78;;;9.24
51693;BMP280;37777;53.066;21.638;2024-02-23T16:31:57;99298.13;;;9.14
51693;BMP280;37777;53.066;21.638;2024-02-23T16:38:59;99310.34;;;9.08
51693;BMP280;37777;53.066;21.638;2024-02-23T16:46:01;99303.41;;;9.07
51693;BMP280;37777;53.066;21.638;2024-02-23T16:53:02;99311.50;;;9.07
51693;BMP280;37777;53.066;21.638;2024-02-23T17:00:05;99316.44;;;9.05
51693;BMP280;37777;53.066;21.638;2024-02-23T17:07:06;99326.84;;;9.03
51693;BMP280;37777;53.066;21.638;2024-02-23T17:14:08;99323.97;;;8.96
51693;BMP280;37777;53.066;21.638;2024-02-23T17:21:09;99328.59;;;8.95
51693;BMP280;37777;53.066;21.638;2024-02-23T17:28:11;99316.97;;;8.91
51693;BMP280;37777;53.066;21.638;2024-02-23T17:35:15;99316.53;;;8.89
51693;BMP280;37777;53.066;21.638;2024-02-23T17:42:17;99324.56;;;8.86
51693;BMP280;37777;53.066;21.638;2024-02-23T17:49:18;99336.06;;;8.82
51693;BMP280;37777;53.066;21.638;2024-02-23T17:56:26;99328.69;;;8.79
51693;BMP280;37777;53.066;21.638;2024-02-23T18:03:28;99332.06;;;8.76
51693;BMP280;37777;53.066;21.638;2024-02-23T18:10:29;99329.00;;;8.74
51693;BMP280;37777;53.066;21.638;2024-02-23T18:17:32;99333.94;;;8.72
51693;BMP280;37777;53.066;21.638;2024-02-23T18:24:34;99328.81;;;8.67
51693;BMP280;37777;53.066;21.638;2024-02-23T18:31:35;99340.75;;;8.66
51693;BMP280;37777;53.066;21.638;2024-02-23T18:38:37;99341.88;;;8.65
51693;BMP280;37777;53.066;21.638;2024-02-23T18:45:39;99338.69;;;8.59
51693;BMP280;37777;53.066;21.638;2024-02-23T18:52:41;99345.97;;;8.59
51693;BMP280;37777;53.066;21.638;2024-02-23T18:59:42;99351.66;;;8.54
51693;BMP280;37777;53.066;21.638;2024-02-23T19:06:44;99366.97;;;8.50
51693;BMP280;37777;53.066;21.638;2024-02-23T19:13:45;99366.38;;;8.40
51693;BMP280;37777;53.066;21.638;2024-02-23T19:20:47;99363.63;;;8.37
51693;BMP280;37777;53.066;21.638;2024-02-23T19:27:48;99339.69;;;8.35
51693;BMP280;37777;53.066;21.638;2024-02-23T19:34:50;99338.91;;;8.35
51693;BMP280;37777;53.066;21.638;2024-02-23T19:41:51;99345.03;;;8.32
51693;BMP280;37777;53.066;21.638;2024-02-23T19:48:53;99363.09;;;8.31
51693;BMP280;37777;53.066;21.638;2024-02-23T19:55:54;99361.88;;;8.28
51693;BMP280;37777;53.066;21.638;2024-02-23T20:02:56;99366.06;;;8.26
51693;BMP280;37777;53.066;21.638;2024-02-23T20:09:58;99377.97;;;8.25
51693;BMP280;37777;53.066;21.638;2024-02-23T20:17:03;99391.47;;;8.25
51693;BMP280;37777;53.066;21.638;2024-02-23T20:24:05;99383.38;;;8.25
51693;BMP280;37777;53.066;21.638;2024-02-23T20:31:06;99395.28;;;8.24
51693;BMP280;37777;53.066;21.638;2024-02-23T20:38:08;99416.13;;;8.27
51693;BMP280;37777;53.066;21.638;2024-02-23T20:53:46;99430.31;;;8.24
51693;BMP280;37777;53.066;21.638;2024-02-23T21:00:48;99421.03;;;8.21
51693;BMP280;37777;53.066;21.638;2024-02-23T21:07:50;99442.66;;;8.25
51693;BMP280;37777;53.066;21.638;2024-02-23T21:14:52;99459.53;;;8.22
51693;BMP280;37777;53.066;21.638;2024-02-23T21:21:53;99444.06;;;8.19
51693;BMP280;37777;53.066;21.638;2024-02-23T21:28:55;99413.97;;;8.17
51693;BMP280;37777;53.066;21.638;2024-02-23T21:35:57;99398.09;;;8.12
51693;BMP280;37777;53.066;21.638;2024-02-23T21:42:59;99393.84;;;8.10
51693;BMP280;37777;53.066;21.638;2024-02-23T21:58:23;99378.00;;;8.09
51693;BMP280;37777;53.066;21.638;2024-02-23T22:05:24;99370.72;;;8.09
51693;BMP280;37777;53.066;21.638;2024-02-23T22:12:26;99374.53;;;8.08
51693;BMP280;37777;53.066;21.638;2024-02-23T22:19:28;99387.88;;;8.05
51693;BMP280;37777;53.066;21.638;2024-02-23T22:26:29;99399.13;;;8.07
51693;BMP280;37777;53.066;21.638;2024-02-23T22:33:31;99386.00;;;8.05
51693;BMP280;37777;53.066;21.638;2024-02-23T22:49:00;99391.03;;;8.07
51693;BMP280;37777;53.066;21.638;2024-02-23T22:56:05;99407.97;;;8.07
51693;BMP280;37777;53.066;21.638;2024-02-23T23:11:35;99392.97;;;8.06
51693;BMP280;37777;53.066;21.638;2024-02-23T23:18:37;99380.25;;;8.07
51693;BMP280;37777;53.066;21.638;2024-02-23T23:25:39;99393.72;;;8.07
51693;BMP280;37777;53.066;21.638;2024-02-23T23:32:40;99421.78;;;8.06
